Time;durP1;ratioP1;P1;durP2;ratioP2;P2;SDS_P1;SDS_P2;PMS_P1;PMS_P2;Temp;Humidity;BMP_temperature;BMP_pressure;BME280_temperature;BME280_humidity;BME280_pressure;Samples;Min_cycle;Max_cycle;Signal;HPM_P1;HPM_P2
2023/02/11 00:01:34;;;;;;;;;;;;;;;;;;5111719;28;20276;-50
2023/02/11 00:04:00;;;;;;;;;;;;;;;;;;5111975;28;19957;-49
2023/02/11 00:06:26;;;;;;;;;;;;;;;;;;5111658;28;19912;-48
2023/02/11 00:08:52;;;;;;;;;;;;;;;;;;5111933;28;19923;-49
2023/02/11 00:11:18;;;;;;;;;;;;;;;;;;5112178;28;20291;-49
2023/02/11 00:13:44;;;;;;;;;;;;;;;;;;5111861;28;19919;-47
2023/02/11 00:16:10;;;;;;;;;;;;;;;;;;5111569;28;20383;-49
2023/02/11 00:18:36;;;;;;;;;;;;;;;;;;5111808;28;19959;-49
2023/02/11 00:21:02;;;;;;;;;;;;;;;;;;5111836;28;20418;-47
2023/02/11 00:23:28;;;;;;;;;;;;;;;;;;5110471;28;19974;-48
2023/02/11 00:25:54;;;;;;;;;;;;;;;;;;5110463;28;19950;-49
2023/02/11 00:28:20;;;;;;;;;;;;;;;;;;5111726;28;19912;-49
2023/02/11 00:30:46;;;;;;;;;;;;;;;;;;5111610;28;20260;-49
2023/02/11 00:33:12;;;;;;;;;;;;;;;;;;5110605;28;19911;-49
2023/02/11 00:35:37;;;;;;;;;;;;;;;;;;5111796;28;19919;-49
2023/02/11 00:38:03;;;;;;;;;;;;;;;;;;5111440;28;19923;-50
2023/02/11 00:40:29;;;;;;;;;;;;;;;;;;5111616;28;19915;-49
2023/02/11 00:42:55;;;;;;;;;;;;;;;;;;5113591;28;19924;-49
2023/02/11 00:45:21;;;;;;;;;;;;;;;;;;5115006;28;19969;-49
2023/02/11 00:47:47;;;;;;;;;;;;;;;;;;5115535;28;19911;-47
2023/02/11 00:50:13;;;;;;;;;;;;;;;;;;5115429;28;19912;-49
2023/02/11 00:52:39;;;;;;;;;;;;;;;;;;5113695;28;20338;-48
2023/02/11 00:55:05;;;;;;;;;;;;;;;;;;5115215;28;19912;-48
2023/02/11 00:57:31;;;;;;;;;;;;;;;;;;5115063;28;20162;-49
2023/02/11 00:59:57;;;;;;;;;;;;;;;;;;5115223;28;20380;-47
2023/02/11 01:02:23;;;;;;;;;;;;;;;;;;5114992;28;19924;-48
2023/02/11 01:04:49;;;;;;;;;;;;;;;;;;5115277;28;19908;-48
2023/02/11 01:07:15;;;;;;;;;;;;;;;;;;5114530;28;19919;-48
2023/02/11 01:09:40;;;;;;;;;;;;;;;;;;5114712;28;20295;-48
2023/02/11 01:12:06;;;;;;;;;;;;;;;;;;5114530;28;19912;-47
2023/02/11 01:14:32;;;;;;;;;;;;;;;;;;5114793;28;19919;-49
2023/02/11 01:16:58;;;;;;;;;;;;;;;;;;5114396;28;19916;-50
2023/02/11 01:19:24;;;;;;;;;;;;;;;;;;5114872;28;19911;-50
2023/02/11 01:21:50;;;;;;;;;;;;;;;;;;5114462;28;20385;-47
2023/02/11 01:24:16;;;;;;;;;;;;;;;;;;5114638;28;19978;-47
2023/02/11 01:26:42;;;;;;;;;;;;;;;;;;5114488;28;19915;-48
2023/02/11 01:29:08;;;;;;;;;;;;;;;;;;5114352;28;20380;-47
2023/02/11 01:31:34;;;;;;;;;;;;;;;;;;5114349;28;19912;-49
2023/02/11 01:34:00;;;;;;;;;;;;;;;;;;5114447;28;19912;-49
2023/02/11 01:36:26;;;;;;;;;;;;;;;;;;5114021;28;20440;-47
2023/02/11 01:38:51;;;;;;;;;;;;;;;;;;5114194;28;19947;-48
2023/02/11 01:41:17;;;;;;;;;;;;;;;;;;5114430;28;19943;-48
2023/02/11 01:43:43;;;;;;;;;;;;;;;;;;5114115;28;19961;-49
2023/02/11 01:46:09;;;;;;;;;;;;;;;;;;5114068;28;19989;-48
2023/02/11 01:48:35;;;;;;;;;;;;;;;;;;5113914;28;19915;-47
2023/02/11 01:51:01;;;;;;;;;;;;;;;;;;5114036;28;19919;-49
2023/02/11 01:58:56;;;;;;;;;;;;;;;;;;5113903;28;20449;-48
2023/02/11 02:01:22;;;;;;;;;;;;;;;;;;5113653;28;19916;-49
2023/02/11 02:03:48;;;;;;;;;;;;;;;;;;5113570;28;19965;-48
2023/02/11 02:06:14;;;;;;;;;;;;;;;;;;5113312;28;19915;-48
2023/02/11 02:08:40;;;;;;;;;;;;;;;;;;5112260;28;19912;-49
2023/02/11 02:11:06;;;;;;;;;;;;;;;;;;5112599;28;19915;-48
2023/02/11 02:13:31;;;;;;;;;;;;;;;;;;5113805;28;20371;-49
2023/02/11 02:15:57;;;;;;;;;;;;;;;;;;5113324;28;19918;-49
2023/02/11 02:18:23;;;;;;;;;;;;;;;;;;5113299;28;19959;-48
2023/02/11 02:20:49;;;;;;;;;;;;;;;;;;5113538;28;19912;-47
2023/02/11 02:23:15;;;;;;;;;;;;;;;;;;5113446;28;19922;-48
2023/02/11 02:25:41;;;;;;;;;;;;;;;;;;5112838;28;20276;-49
2023/02/11 02:28:07;;;;;;;;;;;;;;;;;;5113251;28;19912;-48
2023/02/11 02:30:33;;;;;;;;;;;;;;;;;;5113333;28;19926;-48
2023/02/11 02:32:59;;;;;;;;;;;;;;;;;;5113315;28;19911;-48
2023/02/11 02:35:25;;;;;;;;;;;;;;;;;;5112841;28;19911;-49
2023/02/11 02:37:51;;;;;;;;;;;;;;;;;;5113662;28;20288;-49
2023/02/11 02:40:17;;;;;;;;;;;;;;;;;;5113268;28;20394;-49
2023/02/11 02:42:43;;;;;;;;;;;;;;;;;;5112834;28;20350;-48
2023/02/11 02:45:09;;;;;;;;;;;;;;;;;;5111452;28;19916;-50
2023/02/11 02:47:35;;;;;;;;;;;;;;;;;;5112838;28;20307;-50
2023/02/11 02:50:00;;;;;;;;;;;;;;;;;;5112999;28;20356;-48
2023/02/11 02:52:26;;;;;;;;;;;;;;;;;;5113304;28;19908;-48
2023/02/11 02:54:52;;;;;;;;;;;;;;;;;;5098083;28;19918;-49
2023/02/11 02:57:18;;;;;;;;;;;;;;;;;;5092716;28;19908;-48
2023/02/11 02:59:44;;;;;;;;;;;;;;;;;;5092713;28;20321;-49
2023/02/11 03:02:10;;;;;;;;;;;;;;;;;;5092652;28;19915;-49
2023/02/11 03:04:36;;;;;;;;;;;;;;;;;;5092134;28;19915;-48
2023/02/11 03:07:02;;;;;;;;;;;;;;;;;;5107647;28;19908;-48
2023/02/11 03:09:28;;;;;;;;;;;;;;;;;;5113137;28;19922;-48
2023/02/11 03:11:54;;;;;;;;;;;;;;;;;;5112865;28;19908;-49
2023/02/11 03:14:20;;;;;;;;;;;;;;;;;;5112672;28;19951;-51
2023/02/11 03:16:46;;;;;;;;;;;;;;;;;;5111492;28;19954;-48
2023/02/11 03:19:12;;;;;;;;;;;;;;;;;;5111107;28;20467;-48
2023/02/11 03:21:38;;;;;;;;;;;;;;;;;;5112243;28;20433;-47
2023/02/11 03:24:04;;;;;;;;;;;;;;;;;;5111114;28;19911;-47
2023/02/11 03:26:30;;;;;;;;;;;;;;;;;;5112191;28;19957;-49
2023/02/11 03:28:56;;;;;;;;;;;;;;;;;;5112242;28;19920;-49
2023/02/11 03:31:22;;;;;;;;;;;;;;;;;;5111084;28;20007;-47
2023/02/11 03:33:47;;;;;;;;;;;;;;;;;;5111111;28;19912;-48
2023/02/11 03:36:14;;;;;;;;;;;;;;;;;;5111599;28;19931;-48
2023/02/11 03:38:40;;;;;;;;;;;;;;;;;;5112086;28;19912;-48
2023/02/11 03:41:06;;;;;;;;;;;;;;;;;;5112669;28;20393;-49
2023/02/11 03:43:32;;;;;;;;;;;;;;;;;;5111953;28;19920;-47
2023/02/11 03:45:57;;;;;;;;;;;;;;;;;;5111810;28;19911;-48
2023/02/11 03:48:23;;;;;;;;;;;;;;;;;;5111006;28;19919;-48
2023/02/11 03:50:49;;;;;;;;;;;;;;;;;;5111959;28;19912;-49
2023/02/11 03:53:15;;;;;;;;;;;;;;;;;;5111640;28;20295;-48
2023/02/11 03:55:41;;;;;;;;;;;;;;;;;;5110829;28;20002;-48
2023/02/11 03:58:07;;;;;;;;;;;;;;;;;;5112049;28;20022;-49
2023/02/11 04:00:33;;;;;;;;;;;;;;;;;;5106835;28;19998;-47
2023/02/11 04:02:59;;;;;;;;;;;;;;;;;;5091890;28;19913;-47
2023/02/11 04:05:25;;;;;;;;;;;;;;;;;;5094950;28;19912;-47
2023/02/11 04:07:51;;;;;;;;;;;;;;;;;;5110882;28;19912;-48
2023/02/11 04:10:17;;;;;;;;;;;;;;;;;;5110974;28;19918;-48
2023/02/11 04:12:42;;;;;;;;;;;;;;;;;;5112193;28;19911;-48
2023/02/11 04:15:08;;;;;;;;;;;;;;;;;;5111749;28;19931;-48
2023/02/11 04:17:34;;;;;;;;;;;;;;;;;;5112388;28;19914;-47
2023/02/11 04:20:00;;;;;;;;;;;;;;;;;;5116095;28;19976;-48
2023/02/11 04:22:26;;;;;;;;;;;;;;;;;;5113621;28;20039;-47
2023/02/11 04:24:52;;;;;;;;;;;;;;;;;;5108040;28;20441;-49
2023/02/11 04:27:18;;;;;;;;;;;;;;;;;;5114190;28;19943;-47
2023/02/11 04:29:44;;;;;;;;;;;;;;;;;;5114025;28;19915;-48
2023/02/11 04:32:10;;;;;;;;;;;;;;;;;;5115581;28;19912;-48
2023/02/11 04:34:36;;;;;;;;;;;;;;;;;;5115589;28;19915;-48
2023/02/11 04:37:02;;;;;;;;;;;;;;;;;;5111183;28;19915;-48
2023/02/11 04:39:28;;;;;;;;;;;;;;;;;;5115304;28;19999;-49
2023/02/11 04:41:53;;;;;;;;;;;;;;;;;;5111031;28;19920;-47
2023/02/11 04:44:19;;;;;;;;;;;;;;;;;;5115144;28;19908;-48
2023/02/11 04:46:45;;;;;;;;;;;;;;;;;;5114978;28;19926;-48
2023/02/11 04:49:11;;;;;;;;;;;;;;;;;;5115509;28;19915;-47
2023/02/11 04:51:37;;;;;;;;;;;;;;;;;;5115206;28;19912;-47
2023/02/11 04:54:03;;;;;;;;;;;;;;;;;;5115024;28;19925;-48
2023/02/11 04:56:29;;;;;;;;;;;;;;;;;;5114468;28;20359;-48
2023/02/11 04:58:55;;;;;;;;;;;;;;;;;;5115204;28;20326;-51
2023/02/11 05:01:21;;;;;;;;;;;;;;;;;;5114924;28;20496;-48
2023/02/11 05:03:47;;;;;;;;;;;;;;;;;;5115396;28;20040;-52
2023/02/11 05:06:13;;;;;;;;;;;;;;;;;;5113728;28;19914;-48
2023/02/11 05:08:39;;;;;;;;;;;;;;;;;;5115138;28;19908;-49
2023/02/11 05:11:04;;;;;;;;;;;;;;;;;;5113831;28;19908;-49
2023/02/11 05:13:30;;;;;;;;;;;;;;;;;;5115089;28;19947;-49
2023/02/11 05:15:56;;;;;;;;;;;;;;;;;;5115383;28;19908;-48
2023/02/11 05:18:22;;;;;;;;;;;;;;;;;;5115238;28;19930;-49
2023/02/11 05:20:48;;;;;;;;;;;;;;;;;;5113652;28;20447;-50
2023/02/11 05:23:14;;;;;;;;;;;;;;;;;;5113589;28;20014;-51
2023/02/11 05:25:40;;;;;;;;;;;;;;;;;;5114616;28;19908;-48
2023/02/11 05:28:06;;;;;;;;;;;;;;;;;;5114457;28;19908;-48
2023/02/11 05:30:32;;;;;;;;;;;;;;;;;;5114754;28;19961;-47
2023/02/11 05:32:58;;;;;;;;;;;;;;;;;;5113430;28;20395;-49
2023/02/11 05:35:24;;;;;;;;;;;;;;;;;;5114723;28;20281;-47
2023/02/11 05:37:50;;;;;;;;;;;;;;;;;;5114462;28;20364;-48
2023/02/11 05:40:16;;;;;;;;;;;;;;;;;;5114651;28;20455;-50
2023/02/11 05:42:42;;;;;;;;;;;;;;;;;;5114469;28;20011;-48
2023/02/11 05:45:07;;;;;;;;;;;;;;;;;;5114481;28;19994;-48
2023/02/11 05:47:33;;;;;;;;;;;;;;;;;;5114528;28;19908;-48
2023/02/11 05:49:59;;;;;;;;;;;;;;;;;;5114848;28;19914;-48
2023/02/11 05:52:25;;;;;;;;;;;;;;;;;;5114554;28;19908;-48
2023/02/11 05:54:51;;;;;;;;;;;;;;;;;;5114254;28;19913;-48
2023/02/11 05:57:17;;;;;;;;;;;;;;;;;;5114228;28;20295;-49
2023/02/11 05:59:43;;;;;;;;;;;;;;;;;;5114212;28;20389;-47
2023/02/11 06:02:09;;;;;;;;;;;;;;;;;;5114055;28;19918;-49
2023/02/11 06:04:35;;;;;;;;;;;;;;;;;;5113977;28;19987;-49
2023/02/11 06:07:01;;;;;;;;;;;;;;;;;;5114056;28;19908;-47
2023/02/11 06:09:26;;;;;;;;;;;;;;;;;;5113954;28;19961;-49
2023/02/11 06:11:52;;;;;;;;;;;;;;;;;;5113931;28;19912;-47
2023/02/11 06:14:18;;;;;;;;;;;;;;;;;;5113754;28;20428;-47
2023/02/11 06:16:44;;;;;;;;;;;;;;;;;;5113832;28;20272;-49
2023/02/11 06:19:10;;;;;;;;;;;;;;;;;;5112578;28;19914;-48
2023/02/11 06:21:36;;;;;;;;;;;;;;;;;;5113744;28;20281;-49
2023/02/11 06:24:02;;;;;;;;;;;;;;;;;;5112413;28;19908;-50
2023/02/11 06:26:28;;;;;;;;;;;;;;;;;;5113446;28;19908;-49
2023/02/11 06:28:54;;;;;;;;;;;;;;;;;;5113542;28;19907;-48
2023/02/11 06:31:20;;;;;;;;;;;;;;;;;;5113512;28;20013;-50
2023/02/11 06:33:46;;;;;;;;;;;;;;;;;;5113794;28;19958;-49
2023/02/11 06:36:12;;;;;;;;;;;;;;;;;;5113506;28;19939;-49
2023/02/11 06:38:38;;;;;;;;;;;;;;;;;;5113460;28;20445;-50
2023/02/11 06:41:03;;;;;;;;;;;;;;;;;;5112720;28;19908;-49
2023/02/11 06:43:29;;;;;;;;;;;;;;;;;;5113205;28;20003;-48
2023/02/11 06:45:55;;;;;;;;;;;;;;;;;;5113180;28;19995;-49
2023/02/11 06:48:21;;;;;;;;;;;;;;;;;;5113247;28;20335;-48
2023/02/11 06:50:47;;;;;;;;;;;;;;;;;;5113318;28;19954;-48
2023/02/11 06:53:13;;;;;;;;;;;;;;;;;;5113091;28;19962;-49
2023/02/11 06:55:39;;;;;;;;;;;;;;;;;;5112931;28;19904;-50
2023/02/11 06:58:05;;;;;;;;;;;;;;;;;;5112934;28;19915;-48
2023/02/11 07:00:31;;;;;;;;;;;;;;;;;;5112987;28;20275;-49
2023/02/11 07:02:57;;;;;;;;;;;;;;;;;;5113072;28;19933;-50
2023/02/11 07:05:22;;;;;;;;;;;;;;;;;;5112936;28;19912;-51
2023/02/11 07:07:48;;;;;;;;;;;;;;;;;;5112922;28;19908;-47
2023/02/11 07:10:14;;;;;;;;;;;;;;;;;;5113006;28;19908;-45
2023/02/11 07:12:40;;;;;;;;;;;;;;;;;;5113039;28;20379;-46
2023/02/11 07:15:06;;;;;;;;;;;;;;;;;;5112968;28;19908;-46
2023/02/11 07:17:32;;;;;;;;;;;;;;;;;;5112846;28;20035;-46
2023/02/11 07:19:58;;;;;;;;;;;;;;;;;;5107978;28;19954;-49
2023/02/11 07:22:24;;;;;;;;;;;;;;;;;;5112405;28;20004;-46
2023/02/11 07:24:50;;;;;;;;;;;;;;;;;;5112589;28;19973;-48
2023/02/11 07:27:16;;;;;;;;;;;;;;;;;;5111454;28;19915;-47
2023/02/11 07:29:42;;;;;;;;;;;;;;;;;;5113241;28;19908;-48
2023/02/11 07:32:08;;;;;;;;;;;;;;;;;;5111465;28;19911;-48
2023/02/11 07:34:34;;;;;;;;;;;;;;;;;;5111322;28;19915;-48
2023/02/11 07:37:00;;;;;;;;;;;;;;;;;;5111196;28;19916;-48
2023/02/11 07:39:26;;;;;;;;;;;;;;;;;;5112662;28;19908;-48
2023/02/11 07:41:52;;;;;;;;;;;;;;;;;;5111393;28;19947;-48
2023/02/11 07:44:18;;;;;;;;;;;;;;;;;;5112467;28;19943;-45
2023/02/11 07:46:44;;;;;;;;;;;;;;;;;;5112563;28;20343;-49
2023/02/11 07:49:10;;;;;;;;;;;;;;;;;;5112709;28;19908;-47
2023/02/11 07:51:36;;;;;;;;;;;;;;;;;;5114348;28;20279;-47
2023/02/11 07:54:02;;;;;;;;;;;;;;;;;;5116648;28;19970;-48
2023/02/11 07:56:28;;;;;;;;;;;;;;;;;;5116477;28;19908;-47
2023/02/11 07:58:54;;;;;;;;;;;;;;;;;;5116761;28;20287;-49
2023/02/11 08:01:21;;;;;;;;;;;;;;;;;;5116767;28;19911;-48
2023/02/11 08:03:47;;;;;;;;;;;;;;;;;;5116560;28;19911;-50
2023/02/11 08:06:13;;;;;;;;;;;;;;;;;;5116280;28;20256;-46
2023/02/11 08:08:39;;;;;;;;;;;;;;;;;;5116415;28;19908;-47
2023/02/11 08:11:04;;;;;;;;;;;;;;;;;;5116436;28;19914;-46
2023/02/11 08:13:30;;;;;;;;;;;;;;;;;;5116415;28;19967;-48
2023/02/11 08:15:56;;;;;;;;;;;;;;;;;;5116099;28;20391;-48
2023/02/11 08:18:22;;;;;;;;;;;;;;;;;;5097821;28;19916;-47
2023/02/11 08:20:48;;;;;;;;;;;;;;;;;;5095912;28;19908;-48
2023/02/11 08:23:14;;;;;;;;;;;;;;;;;;5095678;28;19919;-49
2023/02/11 08:25:40;;;;;;;;;;;;;;;;;;5095675;28;19908;-49
2023/02/11 08:28:07;;;;;;;;;;;;;;;;;;5113989;28;19912;-48
2023/02/11 08:30:33;;;;;;;;;;;;;;;;;;5114789;28;20273;-50
2023/02/11 08:32:59;;;;;;;;;;;;;;;;;;5116026;28;19961;-48
2023/02/11 08:35:25;;;;;;;;;;;;;;;;;;5115802;28;19907;-49
2023/02/11 08:37:51;;;;;;;;;;;;;;;;;;5124674;22;19930;-50
2023/02/11 08:40:17;;;;;;;;;;;;;;;;;;5094619;28;19912;-49
2023/02/11 08:42:43;;;;;;;;;;;;;;;;;;5077221;28;19927;-51
2023/02/11 08:45:09;;;;;;;;;;;;;;;;;;5095199;28;19908;-48
2023/02/11 08:47:35;;;;;;;;;;;;;;;;;;5094801;28;19912;-50
2023/02/11 08:50:01;;;;;;;;;;;;;;;;;;5094878;28;20437;-51
2023/02/11 08:52:27;;;;;;;;;;;;;;;;;;5095168;28;19909;-51
2023/02/11 08:54:53;;;;;;;;;;;;;;;;;;5095097;28;19915;-52
2023/02/11 08:57:19;;;;;;;;;;;;;;;;;;5090054;28;19912;-51
2023/02/11 08:59:45;;;;;;;;;;;;;;;;;;5074886;28;19913;-52
2023/02/11 09:02:11;;;;;;;;;;;;;;;;;;5074907;28;19958;-51
2023/02/11 09:04:37;;;;;;;;;;;;;;;;;;5081168;28;19912;-53
2023/02/11 09:07:03;;;;;;;;;;;;;;;;;;5091834;28;19908;-51
2023/02/11 09:09:29;;;;;;;;;;;;;;;;;;5094828;28;19914;-51
2023/02/11 09:11:56;;;;;;;;;;;;;;;;;;5083178;28;19912;-50
2023/02/11 09:14:22;;;;;;;;;;;;;;;;;;5074501;28;19909;-52
2023/02/11 09:16:48;;;;;;;;;;;;;;;;;;5074447;28;19912;-50
2023/02/11 09:19:14;;;;;;;;;;;;;;;;;;5074578;28;20028;-51
2023/02/11 09:21:39;;;;;;;;;;;;;;;;;;5074308;28;19913;-50
2023/02/11 09:24:05;;;;;;;;;;;;;;;;;;5074501;28;20006;-51
2023/02/11 09:26:31;;;;;;;;;;;;;;;;;;5074366;28;19913;-54
2023/02/11 09:28:57;;;;;;;;;;;;;;;;;;5074372;28;20303;-52
2023/02/11 09:31:23;;;;;;;;;;;;;;;;;;5074367;28;19915;-52
2023/02/11 09:33:49;;;;;;;;;;;;;;;;;;5074317;28;19962;-52
2023/02/11 09:36:15;;;;;;;;;;;;;;;;;;5073849;28;19991;-53
2023/02/11 09:38:41;;;;;;;;;;;;;;;;;;5074183;28;20363;-53
2023/02/11 09:41:07;;;;;;;;;;;;;;;;;;5074191;28;19916;-53
2023/02/11 09:43:33;;;;;;;;;;;;;;;;;;5074012;28;19912;-52
2023/02/11 09:45:59;;;;;;;;;;;;;;;;;;5076499;28;20280;-51
2023/02/11 09:48:25;;;;;;;;;;;;;;;;;;5075960;28;19908;-52
2023/02/11 09:50:51;;;;;;;;;;;;;;;;;;5090899;28;20288;-55
2023/02/11 09:53:17;;;;;;;;;;;;;;;;;;5094067;28;19914;-53
2023/02/11 09:55:43;;;;;;;;;;;;;;;;;;5093875;28;19952;-51
2023/02/11 09:58:09;;;;;;;;;;;;;;;;;;5085600;28;19961;-50
2023/02/11 10:00:34;;;;;;;;;;;;;;;;;;5089459;28;20304;-51
2023/02/11 10:03:01;;;;;;;;;;;;;;;;;;5073611;28;19912;-51
2023/02/11 10:05:26;;;;;;;;;;;;;;;;;;5072722;28;20400;-52
2023/02/11 10:07:52;;;;;;;;;;;;;;;;;;5073315;28;19919;-55
2023/02/11 10:10:18;;;;;;;;;;;;;;;;;;5073430;28;19995;-52
2023/02/11 10:12:44;;;;;;;;;;;;;;;;;;5073461;28;20003;-55
2023/02/11 10:15:10;;;;;;;;;;;;;;;;;;5072382;28;20323;-52
2023/02/11 10:17:36;;;;;;;;;;;;;;;;;;5073228;28;20428;-51
2023/02/11 10:20:02;;;;;;;;;;;;;;;;;;5073055;28;19991;-53
2023/02/11 10:22:28;;;;;;;;;;;;;;;;;;5073214;28;19954;-53
2023/02/11 10:24:57;;;;;;;;;;;;;;;;;;5073046;28;19919;-51
2023/02/11 10:27:23;;;;;;;;;;;;;;;;;;5073026;28;19908;-50
2023/02/11 10:29:49;;;;;;;;;;;;;;;;;;5073140;28;19913;-52
2023/02/11 10:32:15;;;;;;;;;;;;;;;;;;5072945;28;20335;-51
2023/02/11 10:34:41;;;;;;;;;;;;;;;;;;5073245;28;19912;-51
2023/02/11 10:37:07;;;;;;;;;;;;;;;;;;5072838;28;20344;-50
2023/02/11 10:39:33;;;;;;;;;;;;;;;;;;5072851;28;19963;-50
2023/02/11 10:41:59;;;;;;;;;;;;;;;;;;5072825;28;19944;-50
2023/02/11 10:44:25;;;;;;;;;;;;;;;;;;5072570;28;19931;-50
2023/02/11 10:46:51;;;;;;;;;;;;;;;;;;5072602;28;19908;-53
2023/02/11 10:49:17;;;;;;;;;;;;;;;;;;5072538;28;19954;-55
2023/02/11 10:51:43;;;;;;;;;;;;;;;;;;5072721;28;20280;-54
2023/02/11 10:54:18;;;;;;;;;;;;;;;;;;5072682;28;19909;-52
2023/02/11 10:56:44;;;;;;;;;;;;;;;;;;5072457;28;19912;-51
2023/02/11 10:59:10;;;;;;;;;;;;;;;;;;5072509;28;19913;-53
2023/02/11 11:01:36;;;;;;;;;;;;;;;;;;5072244;28;19908;-52
2023/02/11 11:04:02;;;;;;;;;;;;;;;;;;5072480;28;20061;-51
2023/02/11 11:06:28;;;;;;;;;;;;;;;;;;5072193;28;20003;-51
2023/02/11 11:08:54;;;;;;;;;;;;;;;;;;5072420;28;19999;-52
2023/02/11 11:11:20;;;;;;;;;;;;;;;;;;5054438;28;20066;-51
2023/02/11 11:13:45;;;;;;;;;;;;;;;;;;5072514;28;19999;-52
2023/02/11 11:16:11;;;;;;;;;;;;;;;;;;5072198;28;20386;-53
2023/02/11 11:18:37;;;;;;;;;;;;;;;;;;5054215;28;19974;-51
2023/02/11 11:21:04;;;;;;;;;;;;;;;;;;5072294;28;19994;-51
2023/02/11 11:23:30;;;;;;;;;;;;;;;;;;5072226;28;19912;-51
2023/02/11 11:25:56;;;;;;;;;;;;;;;;;;5053875;28;19913;-53
2023/02/11 11:28:22;;;;;;;;;;;;;;;;;;5071836;28;19909;-50
2023/02/11 11:30:48;;;;;;;;;;;;;;;;;;5072245;28;19954;-51
2023/02/11 11:33:14;;;;;;;;;;;;;;;;;;5054112;28;19963;-51
2023/02/11 11:35:40;;;;;;;;;;;;;;;;;;5072000;28;19915;-54
2023/02/11 11:38:06;;;;;;;;;;;;;;;;;;5066471;28;19923;-51
2023/02/11 11:40:32;;;;;;;;;;;;;;;;;;5072299;28;19954;-50
2023/02/11 11:42:58;;;;;;;;;;;;;;;;;;5078042;28;19916;-51
2023/02/11 11:45:24;;;;;;;;;;;;;;;;;;5089463;28;19966;-51
2023/02/11 11:47:50;;;;;;;;;;;;;;;;;;5092141;28;20362;-51
2023/02/11 11:50:16;;;;;;;;;;;;;;;;;;5091258;28;19904;-51
2023/02/11 11:52:42;;;;;;;;;;;;;;;;;;5073211;28;20050;-50
2023/02/11 11:55:08;;;;;;;;;;;;;;;;;;5084020;28;20292;-53
2023/02/11 11:57:34;;;;;;;;;;;;;;;;;;5074795;28;19924;-52
2023/02/11 12:00:00;;;;;;;;;;;;;;;;;;5071445;28;19995;-50
2023/02/11 12:02:26;;;;;;;;;;;;;;;;;;5079821;28;20007;-50
2023/02/11 12:04:52;;;;;;;;;;;;;;;;;;5088891;28;19963;-52
2023/02/11 12:07:18;;;;;;;;;;;;;;;;;;5078673;28;19912;-51
2023/02/11 12:09:44;;;;;;;;;;;;;;;;;;5091993;28;19912;-51
2023/02/11 12:12:09;;;;;;;;;;;;;;;;;;5082557;28;19915;-50
2023/02/11 12:14:35;;;;;;;;;;;;;;;;;;5070731;28;19931;-50
2023/02/11 12:17:01;;;;;;;;;;;;;;;;;;5071641;28;20377;-52
2023/02/11 12:19:27;;;;;;;;;;;;;;;;;;5071624;28;19909;-53
2023/02/11 12:21:53;;;;;;;;;;;;;;;;;;5074595;28;20364;-51
2023/02/11 12:24:20;;;;;;;;;;;;;;;;;;5085337;28;19965;-53
2023/02/11 12:26:46;;;;;;;;;;;;;;;;;;5078397;28;20284;-52
2023/02/11 12:29:12;;;;;;;;;;;;;;;;;;5089569;28;19916;-51
2023/02/11 12:31:38;;;;;;;;;;;;;;;;;;5087923;28;19939;-51
2023/02/11 12:34:04;;;;;;;;;;;;;;;;;;5089722;28;19916;-52
2023/02/11 12:36:30;;;;;;;;;;;;;;;;;;5090975;28;19912;-51
2023/02/11 12:38:56;;;;;;;;;;;;;;;;;;5093602;28;19962;-51
2023/02/11 12:43:14;;;;;;;;;;;;;;;;;;5095148;28;19951;-51
2023/02/11 12:44:07;;;;;;;;;;;;;;;;;;5091298;28;19922;-49
2023/02/11 12:46:34;;;;;;;;;;;;;;;;;;5094476;28;20512;-48
2023/02/11 12:49:00;;;;;;;;;;;;;;;;;;5090132;28;19916;-50
2023/02/11 12:51:26;;;;;;;;;;;;;;;;;;5059446;28;20014;-50
2023/02/11 12:53:52;;;;;;;;;;;;;;;;;;5074802;28;20008;-52
2023/02/11 12:56:18;;;;;;;;;;;;;;;;;;5074381;28;19929;-48
2023/02/11 12:58:44;;;;;;;;;;;;;;;;;;5090203;28;19912;-50
2023/02/11 13:01:10;;;;;;;;;;;;;;;;;;5093127;28;19919;-48
2023/02/11 13:03:38;;;;;;;;;;;;;;;;;;5066184;28;20292;-51
2023/02/11 13:06:04;;;;;;;;;;;;;;;;;;5079816;28;19922;-52
2023/02/11 13:08:30;;;;;;;;;;;;;;;;;;5072971;28;20008;-51
2023/02/11 13:10:56;;;;;;;;;;;;;;;;;;5073702;28;19936;-53
2023/02/11 13:13:22;;;;;;;;;;;;;;;;;;5075951;28;19908;-50
2023/02/11 13:15:48;;;;;;;;;;;;;;;;;;5091332;28;20296;-53
2023/02/11 13:18:14;;;;;;;;;;;;;;;;;;5089249;28;19959;-50
2023/02/11 13:20:40;;;;;;;;;;;;;;;;;;5074319;28;20553;-50
2023/02/11 13:23:06;;;;;;;;;;;;;;;;;;5078419;28;19939;-52
2023/02/11 13:25:32;;;;;;;;;;;;;;;;;;5074113;28;19913;-51
2023/02/11 13:27:58;;;;;;;;;;;;;;;;;;5056284;28;19909;-49
2023/02/11 13:30:27;;;;;;;;;;;;;;;;;;5082188;28;19923;-49
2023/02/11 13:32:53;;;;;;;;;;;9.10;47.00;;;;;;5090432;28;19912;-55
2023/02/11 13:35:37;;;;;;;;;;;10.60;48.40;;;;;;5075148;28;19958;-52
2023/02/11 13:38:15;;;;;;;;;;;10.40;48.90;;;;;;5093873;28;19916;-52
2023/02/11 13:40:41;;;;;;;;;;;10.40;49.50;;;;;;5094246;28;19908;-51
2023/02/11 13:43:20;;;;;;;;;;;10.50;47.10;;;;;;5091947;28;19923;-54
2023/02/11 13:45:47;;;;;;;;;;;10.50;47.50;;;;;;5073700;28;19913;-48
2023/02/11 13:48:26;;;;;;;;;;;10.30;46.80;;;;;;5079667;28;20304;-52
2023/02/11 13:51:03;;;;;;;;;;;10.20;47.40;;;;;;5078915;28;20372;-49
2023/02/11 13:53:29;;;;;;;;;;;10.10;47.40;;;;;;5081633;28;19959;-55
2023/02/11 13:56:06;;;;;;;;;;;10.20;47.30;;;;;;5082156;28;19944;-52
2023/02/11 13:58:35;;;;;;;;;;;10.20;46.30;;;;;;5082683;28;19916;-49
2023/02/11 14:01:01;;;;;;;;;;;10.30;47.40;;;;;;5082582;28;19919;-47
2023/02/11 14:09:16;;;;;;;;;;;10.30;47.50;;;;;;5080377;28;19999;-49
2023/02/11 14:11:49;;;;;;;;;;;10.40;47.80;;;;;;5073400;28;19952;-48
2023/02/11 14:14:22;;;;;;;;;;;10.60;47.70;;;;;;5088192;28;19985;-49
2023/02/11 14:16:57;;;;;;;;;;;10.60;45.30;;;;;;5083417;28;19912;-46
2023/02/11 14:19:32;;;;;;;;;;;10.70;45.90;;;;;;5093526;28;20408;-49
2023/02/11 14:22:12;;;;;;;;;;;10.80;43.20;;;;;;5076674;28;20018;-46
2023/02/11 14:24:37;;;;;;;;;;;10.70;44.30;;;;;;5091724;28;19958;-48
2023/02/11 14:27:14;;;;;;;;;;;10.80;44.40;;;;;;5073046;28;19916;-47
2023/02/11 14:29:43;;;;;;;;;;;11.00;45.80;;;;;;5074200;28;19955;-48
2023/02/11 14:32:23;;;;;;;;;;;11.00;44.80;;;;;;5073226;28;19922;-47
2023/02/11 14:35:03;;;;;;;;;;;10.90;44.50;;;;;;5083621;28;20388;-52
2023/02/11 14:37:31;;;;;;;;;;;11.10;43.80;;;;;;5105637;22;19927;-47
2023/02/11 14:40:05;;;;;;;;;;;11.20;43.80;;;;;;5133045;27;19912;-45
2023/02/11 14:42:31;;;;;;;;;;;11.10;44.40;;;;;;5123213;27;19915;-45
2023/02/11 14:45:02;;;;;;;;;;;11.10;44.10;;;;;;5113392;28;19907;-45
2023/02/11 14:47:30;;;;;;;;;;;11.20;44.50;;;;;;5113437;28;19914;-48
2023/02/11 14:49:56;;;;;;;;;;;11.30;42.50;;;;;;5097034;27;19919;-46
2023/02/11 14:52:29;;;;;;;;;;;11.40;44.00;;;;;;5122409;27;20397;-46
2023/02/11 14:55:00;;;;;;;;;;;12.80;40.90;;;;;;5131262;27;20264;-47
2023/02/11 14:57:26;;;;;;;;;;;;;;;;;;5119785;27;20346;-46
2023/02/11 14:59:53;;;;;;;;;;;;;;;;;;5115326;27;19978;-46
2023/02/11 15:02:19;;;;;;;;;;;;;;;;;;5112733;28;19963;-46
2023/02/11 15:04:45;;;;;;;;;;;;;;;;;;5113016;28;19908;-46
2023/02/11 15:07:11;;;;;;;;;;;;;;;;;;5115653;27;19912;-49
2023/02/11 15:09:37;;;;;;;;;;;;;;;;;;5112906;28;19912;-46
2023/02/11 15:12:03;;;;;;;;;;;;;;;;;;5132388;27;19947;-49
2023/02/11 15:14:29;;;;;;;;;;;;;;;;;;5131658;27;19951;-46
2023/02/11 15:16:55;;;;;;;;;;;;;;;;;;5132996;27;19912;-46
2023/02/11 15:19:21;;;;;;;;;;;;;;;;;;5131705;27;20268;-46
2023/02/11 15:21:47;;;;;;;;;;;;;;;;;;5133018;27;20386;-46
2023/02/11 15:24:12;;;;;;;;;;;;;;;;;;5128479;27;20360;-47
2023/02/11 15:26:38;;;;;;;;;;;;;;;;;;5112372;28;19915;-47
2023/02/11 15:29:04;;;;;;;;;;;;;;;;;;5112616;28;19908;-46
2023/02/11 15:31:30;;;;;;;;;;;;;;;;;;5112570;28;19969;-48
2023/02/11 15:33:56;;;;;;;;;;;;;;;;;;5112341;28;20302;-48
2023/02/11 15:36:27;;;;;;;;;;;;;;;;;;5112214;27;19919;-46
2023/02/11 15:38:53;;;;;;;;;;;;;;;;;;5112133;28;19945;-46
2023/02/11 15:41:18;;;;;;;;;;;;;;;;;;5094321;28;19908;-46
2023/02/11 15:43:45;;;;;;;;;;;;;;;;;;5112385;28;19998;-46
2023/02/11 15:46:11;;;;;;;;;;;;;;;;;;5112327;28;19981;-45
2023/02/11 15:48:36;;;;;;;;;;;;;;;;;;5112452;28;19916;-46
2023/02/11 15:51:03;;;;;;;;;;;;;;;;;;5112296;28;19908;-47
2023/02/11 15:53:39;;;;;;;;;;;15.10;40.80;;;;;;5112347;28;19914;-46
2023/02/11 15:56:42;;;;;;;;;;;13.90;38.00;;;;;;5093955;28;19907;-46
2023/02/11 15:59:17;;;;;;;;;;;12.90;39.50;;;;;;5029546;28;19982;-46
2023/02/11 16:01:44;;;;;;;;;;;12.20;40.00;;;;;;5100890;28;20007;-49
2023/02/11 16:04:17;;;;;;;;;;;11.80;41.50;;;;;;5110682;28;20387;-46
2023/02/11 16:06:46;;;;;;;;;;;11.50;42.50;;;;;;5132705;28;19915;-47
2023/02/11 16:09:11;;;;;;;;;;;11.30;43.40;;;;;;5132748;28;19915;-49
2023/02/11 16:11:46;;;;;;;;;;;11.10;42.90;;;;;;5126499;28;19915;-46
2023/02/11 16:14:17;;;;;;;;;;;10.90;43.30;;;;;;5114884;27;19911;-47
2023/02/11 16:16:45;;;;;;;;;;;10.70;44.30;;;;;;5121832;27;20322;-47
2023/02/11 16:19:13;;;;;;;;;;;10.60;45.00;;;;;;5118053;27;19914;-46
2023/02/11 16:21:44;;;;;;;;;;;10.50;45.50;;;;;;5132135;27;19912;-45
2023/02/11 16:24:10;;;;;;;;;;;;;;;;;;5124193;27;19999;-46
2023/02/11 16:26:36;;;;;;;;;;;;;;;;;;5123019;27;20010;-47
2023/02/11 16:29:02;;;;;;;;;;;;;;;;;;5125426;27;20382;-46
2023/02/11 16:31:28;;;;;;;;;;;;;;;;;;5123267;27;19923;-47
2023/02/11 16:33:54;;;;;;;;;;;;;;;;;;5123470;27;20012;-46